Time;durP1;ratioP1;P1;durP2;ratioP2;P2;SDS_P1;SDS_P2;PMS_P1;PMS_P2;Temp;Humidity;BMP_temperature;BMP_pressure;BME280_temperature;BME280_humidity;BME280_pressure;Samples;Min_cycle;Max_cycle;Signal;HPM_P1;HPM_P2
2022/05/15 00:00:53;;;;;;;45.25;11.73;;;8.40;99.90;;;;;;5011788;28;20057;-47
2022/05/15 00:03:21;;;;;;;42.25;12.55;;;8.10;99.90;;;;;;5011789;28;20037;-49
2022/05/15 00:05:55;;;;;;;48.28;13.40;;;8.20;99.90;;;;;;5011761;28;20060;-49
2022/05/15 00:08:22;;;;;;;43.45;12.23;;;7.60;99.90;;;;;;5011463;28;20049;-47
2022/05/15 00:10:48;;;;;;;46.13;11.27;;;7.80;99.90;;;;;;5011508;28;20056;-47
2022/05/15 00:13:14;;;;;;;38.40;10.60;;;7.80;99.90;;;;;;5011378;28;20493;-48
2022/05/15 00:15:40;;;;;;;44.88;12.27;;;7.50;99.90;;;;;;5011612;28;20084;-48
2022/05/15 00:18:07;;;;;;;44.92;10.52;;;7.50;99.90;;;;;;5011524;28;20061;-48
2022/05/15 00:20:32;;;;;;;37.15;11.52;;;7.50;99.90;;;;;;5011279;28;20130;-46
2022/05/15 00:22:59;;;;;;;36.92;12.93;;;7.20;99.90;;;;;;5011149;28;20125;-46
2022/05/15 00:25:25;;;;;;;37.58;12.18;;;7.40;99.90;;;;;;5010054;28;20049;-50
2022/05/15 00:27:52;;;;;;;49.35;13.48;;;7.10;99.90;;;;;;5010812;28;20034;-47
2022/05/15 00:30:20;;;;;;;41.13;11.88;;;7.30;99.90;;;;;;5011283;28;20045;-49
2022/05/15 00:32:47;;;;;;;36.50;11.20;;;7.30;99.90;;;;;;5011436;28;20057;-48
2022/05/15 00:35:12;;;;;;;43.65;11.90;;;7.30;99.90;;;;;;5011196;28;20049;-46
2022/05/15 00:37:38;;;;;;;50.28;13.50;;;7.00;99.90;;;;;;5009367;28;20112;-48
2022/05/15 00:40:05;;;;;;;41.97;13.30;;;8.00;99.90;;;;;;5011072;28;20512;-47
2022/05/15 00:42:31;;;;;;;57.63;14.55;;;7.50;99.90;;;;;;5010956;28;20045;-49
2022/05/15 00:44:57;;;;;;;43.00;13.52;;;7.40;99.90;;;;;;5010845;28;20061;-48
2022/05/15 00:47:22;;;;;;;48.95;16.83;;;8.10;99.90;;;;;;5010907;28;20096;-47
2022/05/15 00:49:50;;;;;;;46.78;15.77;;;7.40;99.90;;;;;;5011093;28;20408;-48
2022/05/15 00:52:21;;;;;;;41.65;14.27;;;7.10;99.90;;;;;;5009662;28;20058;-46
2022/05/15 00:54:53;;;;;;;50.07;17.80;;;7.20;99.90;;;;;;5010846;28;20514;-49
2022/05/15 00:57:28;;;;;;;46.92;16.95;;;7.30;99.90;;;;;;5010924;28;20723;-47
2022/05/15 01:00:06;;;;;;;40.03;13.90;;;7.00;99.90;;;;;;5010564;28;20145;-46
2022/05/15 01:02:37;;;;;;;38.42;13.43;;;6.90;99.90;;;;;;5010377;28;20104;-47
2022/05/15 01:05:04;;;;;;;38.55;13.85;;;6.80;99.90;;;;;;5008695;28;20149;-46
2022/05/15 01:07:30;;;;;;;46.53;12.35;;;6.70;99.90;;;;;;5010066;28;20389;-47
2022/05/15 01:09:55;;;;;;;54.25;13.00;;;6.70;99.90;;;;;;5010574;28;20049;-49
2022/05/15 01:12:22;;;;;;;52.35;11.63;;;6.60;99.90;;;;;;5010024;28;20458;-46
2022/05/15 01:14:49;;;;;;;46.83;12.80;;;6.70;99.90;;;;;;5009010;28;20073;-47
2022/05/15 01:17:16;;;;;;;41.70;12.18;;;6.70;99.90;;;;;;5009757;28;20061;-46
2022/05/15 01:19:43;;;;;;;52.63;14.25;;;6.70;99.90;;;;;;5010147;28;20126;-46
2022/05/15 01:22:11;;;;;;;46.10;13.93;;;6.80;99.90;;;;;;5009600;28;20125;-47
2022/05/15 01:24:37;;;;;;;45.05;11.82;;;6.80;99.90;;;;;;5010150;28;20041;-47
2022/05/15 01:27:10;;;;;;;48.28;13.40;;;6.80;99.90;;;;;;5010466;28;20037;-48
2022/05/15 01:29:40;;;;;;;44.50;14.85;;;6.80;99.90;;;;;;5010423;28;20049;-46
2022/05/15 01:32:06;;;;;;;41.35;13.50;;;6.90;99.90;;;;;;5009869;28;20353;-46
2022/05/15 01:34:32;;;;;;;56.15;15.20;;;6.90;99.90;;;;;;5010397;28;20038;-48
2022/05/15 01:36:59;;;;;;;48.22;13.88;;;7.90;99.90;;;;;;5010195;28;20096;-45
2022/05/15 01:39:26;;;;;;;51.70;13.20;;;6.50;99.90;;;;;;5009547;28;20572;-46
2022/05/15 01:41:52;;;;;;;41.33;12.50;;;6.70;99.90;;;;;;5008528;28;20535;-47
2022/05/15 01:44:17;;;;;;;45.90;14.20;;;6.40;99.90;;;;;;5010068;28;20045;-47
2022/05/15 01:46:43;;;;;;;45.42;12.95;;;6.60;99.90;;;;;;5010007;28;20417;-47
2022/05/15 01:49:09;;;;;;;40.20;13.30;;;6.60;99.90;;;;;;5008011;28;20103;-47
2022/05/15 01:51:38;;;;;;;45.13;13.00;;;6.30;99.90;;;;;;5009924;28;20042;-47
2022/05/15 01:54:04;;;;;;;38.53;12.93;;;6.40;99.90;;;;;;5009489;28;20092;-48
2022/05/15 01:56:30;;;;;;;41.58;14.23;;;6.40;99.90;;;;;;5009683;28;20041;-48
2022/05/15 01:58:57;;;;;;;45.70;14.32;;;6.40;99.90;;;;;;5009615;28;20052;-47
2022/05/15 02:01:23;;;;;;;50.00;14.43;;;6.30;99.90;;;;;;5008054;28;20049;-48
2022/05/15 02:03:49;;;;;;;47.70;13.93;;;6.10;99.90;;;;;;5009172;28;20581;-48
2022/05/15 02:06:15;;;;;;;49.90;14.75;;;6.10;99.90;;;;;;5009450;28;20180;-47
2022/05/15 02:08:41;;;;;;;36.35;14.40;;;7.00;99.90;;;;;;5009219;28;20482;-47
2022/05/15 02:11:07;;;;;;;34.80;12.68;;;6.10;99.90;;;;;;5009535;28;20088;-47
2022/05/15 02:13:33;;;;;;;36.97;11.77;;;6.80;99.90;;;;;;5009467;28;20049;-46
2022/05/15 02:15:59;;;;;;;41.33;15.50;;;6.00;99.90;;;;;;5009742;28;20041;-47
2022/05/15 02:18:25;;;;;;;47.75;17.05;;;5.80;99.90;;;;;;5009238;28;20033;-48
2022/05/15 02:20:50;;;;;;;41.65;15.75;;;5.80;99.90;;;;;;5009570;28;20508;-47
2022/05/15 02:23:16;;;;;;;40.00;14.88;;;5.90;99.90;;;;;;5009295;28;20478;-48
2022/05/15 02:25:42;;;;;;;32.85;10.43;;;5.90;99.90;;;;;;5009494;28;20071;-49
2022/05/15 02:28:09;;;;;;;39.70;14.27;;;5.70;99.90;;;;;;5009093;28;20499;-48
2022/05/15 02:30:35;;;;;;;31.15;11.43;;;5.60;99.90;;;;;;5009061;28;20503;-46
2022/05/15 02:33:01;;;;;;;17.00;8.10;;;5.50;99.90;;;;;;5009145;28;20057;-47
2022/05/15 02:35:27;;;;;;;21.77;8.45;;;5.50;99.90;;;;;;5008746;28;20046;-50
2022/05/15 02:37:53;;;;;;;22.13;9.98;;;5.30;99.90;;;;;;5008426;28;20061;-47
2022/05/15 02:40:21;;;;;;;15.43;9.07;;;5.30;99.90;;;;;;5008576;28;20401;-45
2022/05/15 02:42:48;;;;;;;16.48;8.50;;;5.30;99.90;;;;;;5008459;28;20054;-46
2022/05/15 02:45:14;;;;;;;9.13;6.03;;;5.60;99.90;;;;;;5008566;28;20393;-48
2022/05/15 02:47:40;;;;;;;10.90;4.65;;;5.40;99.90;;;;;;5009043;28;20037;-49
2022/05/15 02:52:53;;;;;;;6.63;3.53;;;5.00;99.90;;;;;;5010824;28;20167;-46
2022/05/15 02:55:20;;;;;;;9.32;3.90;;;5.70;99.90;;;;;;5012646;28;20100;-47
2022/05/15 02:57:46;;;;;;;12.45;5.00;;;4.90;99.90;;;;;;5012887;28;20160;-47
2022/05/15 03:00:14;;;;;;;28.50;10.55;;;5.00;99.90;;;;;;5011095;28;20050;-46
2022/05/15 03:02:41;;;;;;;25.73;9.50;;;4.80;99.90;;;;;;5012937;28;20046;-47
2022/05/15 03:05:08;;;;;;;19.98;8.48;;;4.90;99.90;;;;;;5012395;28;20069;-49
2022/05/15 03:07:35;;;;;;;19.80;7.07;;;5.20;99.90;;;;;;5012190;28;20052;-48
2022/05/15 03:10:00;;;;;;;22.50;8.82;;;4.90;99.90;;;;;;5011471;28;20497;-48
2022/05/15 03:12:26;;;;;;;25.85;9.57;;;4.90;99.90;;;;;;5012159;28;20054;-47
2022/05/15 03:14:52;;;;;;;30.15;11.77;;;4.90;99.90;;;;;;5012570;28;20049;-46
2022/05/15 03:17:18;;;;;;;43.78;14.32;;;4.90;99.90;;;;;;5012306;28;20062;-45
2022/05/15 03:19:44;;;;;;;35.33;12.05;;;4.90;99.90;;;;;;5012174;28;20050;-45
2022/05/15 03:22:10;;;;;;;40.72;14.40;;;4.90;99.90;;;;;;5012136;28;20041;-45
2022/05/15 03:24:36;;;;;;;55.45;17.67;;;5.00;99.90;;;;;;5010104;28;20045;-46
2022/05/15 03:27:02;;;;;;;35.38;12.73;;;5.70;99.90;;;;;;5012036;28;20128;-46
2022/05/15 03:29:28;;;;;;;34.15;12.77;;;4.80;99.90;;;;;;5011861;28;20064;-47
2022/05/15 03:31:54;;;;;;;22.02;8.02;;;;;;;;;;5012234;28;20061;-47
2022/05/15 03:34:20;;;;;;;21.30;8.52;;;4.70;99.90;;;;;;5010293;28;20077;-46
2022/05/15 03:36:48;;;;;;;25.13;9.20;;;4.60;99.90;;;;;;5009981;28;20096;-46
2022/05/15 03:39:15;;;;;;;13.65;7.38;;;4.60;99.90;;;;;;5011578;28;20046;-47
2022/05/15 03:41:44;;;;;;;12.63;5.07;;;4.60;99.90;;;;;;5010407;28;20054;-48
2022/05/15 03:44:10;;;;;;;10.60;5.25;;;4.50;99.90;;;;;;5011998;28;20049;-45
2022/05/15 03:46:36;;;;;;;10.38;5.38;;;4.50;99.90;;;;;;5011463;28;20042;-46
2022/05/15 03:49:02;;;;;;;14.10;5.43;;;4.40;99.90;;;;;;5011236;28;20531;-46
2022/05/15 03:51:28;;;;;;;10.45;4.30;;;4.40;99.90;;;;;;5011345;28;20042;-46
2022/05/15 03:53:54;;;;;;;10.68;3.40;;;4.40;99.90;;;;;;5011769;28;20052;-46
2022/05/15 03:56:49;;;;;;;6.75;2.58;;;4.30;99.90;;;;;;5010120;28;20084;-45
2022/05/15 03:59:06;;;;;;;4.82;2.30;;;4.30;99.90;;;;;;5011096;28;20053;-48
2022/05/15 04:01:32;;;;;;;5.85;2.63;;;4.40;99.90;;;;;;5010803;28;20053;-47
2022/05/15 04:03:59;;;;;;;7.93;3.75;;;4.40;99.90;;;;;;5009702;28;20104;-46
2022/05/15 04:06:25;;;;;;;7.80;2.42;;;4.40;99.90;;;;;;5011315;28;20042;-46
2022/05/15 04:08:51;;;;;;;6.80;3.10;;;4.50;99.90;;;;;;5011690;28;20471;-46
2022/05/15 04:11:18;;;;;;;11.43;4.63;;;4.50;99.90;;;;;;5011638;28;20046;-47
2022/05/15 04:13:44;;;;;;;11.00;4.40;;;4.60;99.90;;;;;;5011009;28;20049;-45
2022/05/15 04:16:10;;;;;;;7.13;3.35;;;4.80;99.90;;;;;;5011073;28;20034;-47
2022/05/15 04:18:35;;;;;;;9.38;3.40;;;5.00;99.90;;;;;;5010897;28;20057;-46
2022/05/15 04:21:02;;;;;;;7.97;4.28;;;5.30;99.90;;;;;;5010556;28;20097;-45
2022/05/15 04:23:27;;;;;;;4.57;2.58;;;5.30;99.90;;;;;;5010883;28;20554;-46
2022/05/15 04:25:53;;;;;;;3.65;2.67;;;5.40;99.90;;;;;;5010994;28;20046;-47
2022/05/15 04:28:19;;;;;;;4.45;3.42;;;5.40;99.90;;;;;;5011625;28;20117;-48
2022/05/15 04:30:44;;;;;;;4.75;2.97;;;5.50;99.90;;;;;;5011402;28;20117;-46
2022/05/15 04:33:10;;;;;;;11.00;3.97;;;5.60;99.90;;;;;;5011309;28;20042;-48
2022/05/15 04:35:36;;;;;;;16.67;5.13;;;5.70;99.90;;;;;;5010714;28;20147;-46
2022/05/15 04:38:01;;;;;;;12.85;4.70;;;5.70;99.90;;;;;;5010104;28;20112;-46
2022/05/15 04:40:27;;;;;;;11.02;4.90;;;5.90;99.90;;;;;;5010420;28;20046;-46
2022/05/15 04:42:53;;;;;;;16.20;6.57;;;6.00;99.90;;;;;;5010455;28;20049;-47
2022/05/15 04:45:19;;;;;;;28.15;8.20;;;6.00;99.90;;;;;;5010315;28;20489;-46
2022/05/15 04:47:46;;;;;;;20.83;9.88;;;6.30;99.90;;;;;;5010485;28;20034;-48
2022/05/15 04:50:13;;;;;;;26.92;10.88;;;6.50;99.90;;;;;;5010797;28;20045;-47
2022/05/15 04:52:39;;;;;;;24.15;9.75;;;7.40;99.90;;;;;;5010061;28;20048;-47
2022/05/15 04:55:05;;;;;;;21.13;10.07;;;6.90;99.90;;;;;;5011096;28;20081;-47
2022/05/15 04:57:31;;;;;;;27.75;10.77;;;7.10;99.90;;;;;;5010729;28;20046;-48
2022/05/15 04:59:57;;;;;;;34.05;11.50;;;7.30;99.90;;;;;;5011079;28;20049;-48
2022/05/15 05:02:22;;;;;;;34.10;11.20;;;7.50;99.90;;;;;;5011175;28;20048;-47
2022/05/15 05:04:48;;;;;;;22.13;11.30;;;7.70;99.90;;;;;;5011092;28;20772;-46
2022/05/15 05:07:14;;;;;;;36.30;12.98;;;7.90;99.90;;;;;;5011285;28;20112;-46
2022/05/15 05:09:39;;;;;;;24.08;11.85;;;8.10;99.90;;;;;;5010316;28;20093;-46
2022/05/15 05:12:06;;;;;;;28.98;10.65;;;8.60;99.90;;;;;;5010039;28;20045;-47
2022/05/15 05:14:31;;;;;;;30.58;11.02;;;9.00;99.90;;;;;;5009535;28;20049;-46
2022/05/15 05:16:57;;;;;;;27.50;10.75;;;9.60;99.90;;;;;;5009909;28;20092;-45
2022/05/15 05:19:23;;;;;;;25.60;10.45;;;10.00;99.90;;;;;;5010665;28;20053;-48
2022/05/15 05:21:48;;;;;;;31.40;9.93;;;11.40;99.90;;;;;;5009717;28;20099;-47
2022/05/15 05:24:14;;;;;;;22.52;8.77;;;12.80;99.90;;;;;;5009819;28;20045;-46
2022/05/15 05:26:40;;;;;;;22.00;8.70;;;14.30;99.90;;;;;;5007957;28;20045;-46
2022/05/15 05:29:06;;;;;;;23.92;8.50;;;15.30;99.90;;;;;;5010271;28;20409;-47
2022/05/15 05:31:31;;;;;;;16.60;7.03;;;16.40;99.90;;;;;;5010189;28;20041;-48
2022/05/15 05:33:57;;;;;;;26.20;6.82;;;17.20;99.90;;;;;;5009871;28;20072;-47
2022/05/15 05:36:23;;;;;;;19.58;6.22;;;18.00;99.90;;;;;;5010116;28;20060;-48
2022/05/15 05:38:48;;;;;;;17.90;7.25;;;18.00;99.40;;;;;;5009123;28;20093;-47
2022/05/15 05:41:14;;;;;;;18.40;5.43;;;18.70;98.20;;;;;;5009291;28;20045;-47
2022/05/15 05:43:40;;;;;;;20.80;6.15;;;19.40;94.60;;;;;;5009515;28;20498;-48
2022/05/15 05:46:06;;;;;;;22.90;7.32;;;19.00;94.70;;;;;;5010190;28;20054;-48
2022/05/15 05:48:32;;;;;;;21.90;6.03;;;18.60;95.70;;;;;;5008691;28;20481;-47
2022/05/15 05:50:58;;;;;;;19.42;5.72;;;19.70;94.00;;;;;;5010103;28;20045;-49
2022/05/15 05:53:23;;;;;;;23.20;7.13;;;20.80;90.70;;;;;;5008370;28;20402;-47
2022/05/15 05:55:50;;;;;;;17.17;5.85;;;21.60;87.40;;;;;;5009202;28;20101;-46
2022/05/15 05:58:15;;;;;;;15.98;5.15;;;22.30;82.70;;;;;;5009562;28;20082;-45
2022/05/15 06:00:41;;;;;;;17.05;5.13;;;23.00;78.40;;;;;;5009213;28;20050;-46
2022/05/15 06:05:52;;;;;;;17.38;5.30;;;24.20;73.30;;;;;;5009011;28;20095;-46
2022/05/15 06:08:19;;;;;;;15.52;4.68;;;24.80;70.60;;;;;;5009688;28;20038;-45
2022/05/15 06:10:45;;;;;;;18.50;4.85;;;25.30;68.60;;;;;;5009690;28;20160;-46
2022/05/15 06:13:11;;;;;;;13.98;4.82;;;25.40;65.30;;;;;;5009367;28;20042;-46
2022/05/15 06:15:37;;;;;;;17.40;5.00;;;25.60;64.20;;;;;;5009311;28;20049;-46
2022/05/15 06:18:04;;;;;;;20.27;4.57;;;24.80;63.80;;;;;;5009242;28;20045;-46
2022/05/15 06:20:31;;;;;;;14.73;4.35;;;24.00;65.20;;;;;;5009309;28;20048;-47
2022/05/15 06:22:57;;;;;;;20.30;4.97;;;22.80;67.40;;;;;;5008850;28;20042;-45
2022/05/15 06:25:23;;;;;;;19.25;4.65;;;22.00;70.00;;;;;;5009152;28;20040;-47
2022/05/15 06:27:49;;;;;;;16.88;4.70;;;22.10;71.50;;;;;;5008775;28;20493;-45
2022/05/15 06:30:16;;;;;;;17.90;5.43;;;23.90;68.50;;;;;;5009434;28;20392;-47
2022/05/15 06:32:42;;;;;;;17.20;5.47;;;25.10;65.20;;;;;;5009126;28;20054;-46
2022/05/15 06:35:10;;;;;;;16.75;5.53;;;26.20;62.70;;;;;;5009432;28;20037;-46
2022/05/15 06:37:36;;;;;;;16.13;4.70;;;27.00;60.30;;;;;;5007036;28;20159;-46
2022/05/15 06:40:03;;;;;;;14.80;3.97;;;27.50;58.60;;;;;;5009209;28;20081;-46
2022/05/15 06:42:29;;;;;;;13.88;4.22;;;27.70;56.20;;;;;;5009001;28;20061;-46
2022/05/15 06:44:55;;;;;;;15.40;3.80;;;28.20;55.50;;;;;;5009082;28;20049;-46
2022/05/15 06:47:23;;;;;;;16.63;4.25;;;28.70;54.00;;;;;;5009117;28;20046;-46
2022/05/15 06:49:49;;;;;;;14.63;4.40;;;29.10;53.80;;;;;;5008584;28;20049;-47
2022/05/15 06:52:15;;;;;;;12.93;4.05;;;29.10;52.40;;;;;;5008610;28;20052;-45
2022/05/15 06:54:41;;;;;;;16.98;4.68;;;29.00;51.40;;;;;;5008600;28;20397;-46
2022/05/15 06:59:51;;;;;;;16.63;4.57;;;29.80;50.60;;;;;;5008937;28;20125;-47
2022/05/15 07:02:16;;;;;;;18.52;4.88;;;30.20;49.90;;;;;;5008965;28;20073;-48
2022/05/15 07:04:42;;;;;;;13.75;3.92;;;30.60;49.30;;;;;;5008756;28;20138;-47
2022/05/15 07:07:08;;;;;;;14.57;4.25;;;30.80;49.00;;;;;;5009219;28;20446;-48
2022/05/15 07:09:34;;;;;;;12.85;3.63;;;31.00;47.80;;;;;;5009094;28;20076;-49
2022/05/15 07:12:00;;;;;;;14.23;3.40;;;31.20;47.20;;;;;;5008759;28;20052;-49
2022/05/15 07:14:26;;;;;;;13.60;3.53;;;31.60;47.10;;;;;;5008962;28;20120;-49
2022/05/15 07:16:51;;;;;;;12.23;4.10;;;31.80;46.50;;;;;;5007206;28;20496;-47
2022/05/15 07:19:17;;;;;;;16.33;4.13;;;32.00;45.90;;;;;;5008588;28;20549;-50
2022/05/15 07:21:43;;;;;;;15.20;4.45;;;32.50;45.80;;;;;;5009056;28;20044;-47
2022/05/15 07:24:09;;;;;;;17.60;4.32;;;32.90;44.70;;;;;;5008499;28;20378;-47
2022/05/15 07:26:39;;;;;;;13.65;4.10;;;32.90;44.40;;;;;;5008325;28;20246;-47
2022/05/15 07:29:05;;;;;;;11.52;3.80;;;32.80;43.50;;;;;;5008378;28;20088;-50
2022/05/15 07:31:31;;;;;;;14.55;3.42;;;32.90;43.50;;;;;;5008907;28;20456;-51
2022/05/15 07:33:56;;;;;;;12.93;3.40;;;32.80;43.30;;;;;;5008779;28;20081;-49
2022/05/15 07:36:22;;;;;;;11.90;3.53;;;32.90;43.10;;;;;;5008492;28;20069;-49
2022/05/15 07:38:48;;;;;;;11.32;3.63;;;33.10;42.90;;;;;;5009543;28;20116;-48
2022/05/15 07:41:14;;;;;;;15.95;3.40;;;33.20;42.50;;;;;;5011745;28;20418;-51
2022/05/15 07:43:40;;;;;;;12.32;3.42;;;33.50;42.30;;;;;;5011522;28;20058;-47
2022/05/15 07:46:06;;;;;;;14.50;3.63;;;33.90;42.50;;;;;;5011589;28;20044;-51
2022/05/15 07:48:32;;;;;;;14.70;3.90;;;34.10;42.00;;;;;;5011499;28;20441;-51
2022/05/15 07:50:58;;;;;;;15.25;4.60;;;34.20;41.30;;;;;;5010348;28;20045;-51
2022/05/15 07:53:24;;;;;;;13.02;4.35;;;34.40;40.90;;;;;;5011032;28;20144;-52
2022/05/15 07:55:49;;;;;;;11.48;3.30;;;34.30;40.40;;;;;;5011185;28;20053;-51
2022/05/15 07:58:15;;;;;;;12.02;3.63;;;34.30;40.80;;;;;;5010947;28;20071;-51
2022/05/15 08:00:40;;;;;;;14.63;3.83;;;34.60;40.60;;;;;;5011236;28;20137;-51
2022/05/15 08:03:10;;;;;;;11.48;3.25;;;34.60;39.80;;;;;;5010648;28;20041;-53
2022/05/15 08:08:25;;;;;;;10.90;3.10;;;34.50;39.90;;;;;;4990991;28;20145;-52
2022/05/15 08:10:51;;;;;;;12.15;3.63;;;34.60;40.30;;;;;;5011605;28;20145;-52
2022/05/15 08:13:25;;;;;;;10.63;3.22;;;34.90;40.00;;;;;;5011531;28;20125;-50
2022/05/15 08:15:51;;;;;;;11.60;3.67;;;35.20;39.20;;;;;;5011556;28;20112;-52
2022/05/15 08:23:57;;;;;;;13.82;3.58;;;35.70;38.60;;;;;;5011041;28;20053;-52
2022/05/15 08:26:24;;;;;;;11.40;2.55;;;36.10;38.10;;;;;;5011573;28;20045;-52
2022/05/15 08:28:49;;;;;;;11.38;3.40;;;36.20;38.20;;;;;;5011387;28;20044;-53
2022/05/15 08:31:17;;;;;;;10.60;2.90;;;36.50;38.70;;;;;;5011079;28;20179;-53
2022/05/15 08:33:43;;;;;;;13.73;2.92;;;37.00;37.40;;;;;;5011230;28;20072;-51
2022/05/15 08:36:10;;;;;;;13.85;3.47;;;37.30;37.20;;;;;;5009990;28;20070;-51
2022/05/15 08:38:37;;;;;;;11.32;3.20;;;37.70;37.10;;;;;;5009437;28;20405;-52
2022/05/15 08:41:21;;;;;;;12.18;3.03;;;37.90;35.70;;;;;;5010365;28;20049;-52
2022/05/15 08:44:10;;;;;;;12.27;3.85;;;38.00;35.00;;;;;;5009962;28;20061;-52
2022/05/15 08:46:48;;;;;;;11.68;2.90;;;37.70;35.40;;;;;;5010516;28;20480;-52
2022/05/15 08:49:26;;;;;;;10.55;3.22;;;37.70;35.40;;;;;;5010354;28;20140;-52
2022/05/15 08:52:13;;;;;;;11.75;3.28;;;37.70;34.60;;;;;;5010760;28;20084;-51
2022/05/15 08:54:56;;;;;;;13.48;3.80;;;37.60;35.20;;;;;;5010669;28;20038;-51
2022/05/15 08:57:38;;;;;;;12.95;3.88;;;37.80;35.00;;;;;;5010640;28;20057;-53
2022/05/15 09:00:10;;;;;;;10.05;2.65;;;37.30;33.50;;;;;;5008926;28;20060;-52
2022/05/15 09:02:42;;;;;;;11.27;2.88;;;37.00;35.00;;;;;;5010836;28;20046;-51
2022/05/15 09:05:09;;;;;;;12.15;3.30;;;37.00;34.60;;;;;;5009295;28;20084;-53
2022/05/15 09:08:22;;;;;;;11.82;2.67;;;37.40;35.40;;;;;;5010374;28;20124;-53
2022/05/15 09:11:01;;;;;;;13.15;3.05;;;38.10;34.60;;;;;;4968751;28;20046;-53
2022/05/15 09:13:32;;;;;;;13.77;3.40;;;38.10;34.10;;;;;;5006932;28;20441;-53
2022/05/15 09:16:00;;;;;;;12.63;3.65;;;38.20;33.10;;;;;;5010304;28;20115;-53
2022/05/15 09:18:27;;;;;;;14.70;3.97;;;38.30;33.60;;;;;;5010257;28;20046;-53
2022/05/15 09:20:53;;;;;;;12.50;2.85;;;38.00;33.40;;;;;;5010060;28;20052;-54
2022/05/15 09:23:25;;;;;;;13.40;3.22;;;38.20;33.60;;;;;;5009374;28;20041;-53
2022/05/15 09:25:52;;;;;;;11.48;3.33;;;38.50;33.50;;;;;;5008067;28;20069;-53
2022/05/15 09:28:18;;;;;;;12.13;3.13;;;38.40;33.30;;;;;;5008190;28;20068;-53
2022/05/15 09:30:50;;;;;;;10.80;2.90;;;38.00;32.70;;;;;;5009973;28;20747;-53
2022/05/15 09:33:28;;;;;;;11.57;2.75;;;37.30;32.80;;;;;;5009757;28;20057;-52
2022/05/15 09:36:30;;;;;;;12.07;2.95;;;36.70;34.10;;;;;;5010341;28;20073;-53
2022/05/15 09:39:23;;;;;;;17.13;3.22;;;37.20;34.60;;;;;;5010028;28;20052;-54
2022/05/15 09:44:45;;;;;;;12.40;2.95;;;38.50;34.20;;;;;;5009551;28;20768;-53
2022/05/15 09:47:11;;;;;;;12.63;2.90;;;38.60;33.30;;;;;;5008264;28;20046;-53
2022/05/15 09:49:37;;;;;;;12.45;3.03;;;39.00;34.00;;;;;;5009794;28;20172;-53
2022/05/15 09:52:35;;;;;;;13.85;3.58;;;39.60;34.70;;;;;;5009409;28;20129;-53
2022/05/15 09:55:21;;;;;;;12.82;2.90;;;39.90;33.00;;;;;;5002212;28;20066;-54
2022/05/15 09:58:18;;;;;;;12.80;3.35;;;40.10;33.20;;;;;;5009998;28;20042;-54
2022/05/15 10:00:43;;;;;;;11.80;2.72;;;40.30;33.60;;;;;;5000484;28;20050;-54
2022/05/15 10:03:35;;;;;;;12.70;2.95;;;40.30;33.10;;;;;;5008849;28;20045;-54
2022/05/15 10:06:08;;;;;;;10.02;2.88;;;40.20;32.80;;;;;;5006452;28;20409;-54
2022/05/15 10:08:34;;;;;;;10.38;2.63;;;39.90;31.90;;;;;;5009054;28;20042;-54
2022/05/15 10:11:11;;;;;;;13.95;3.70;;;39.50;31.70;;;;;;5007686;28;20096;-53
2022/05/15 10:13:45;;;;;;;12.50;2.95;;;38.80;32.20;;;;;;5009383;28;20100;-52
2022/05/15 10:16:17;;;;;;;10.55;2.78;;;38.30;32.60;;;;;;5009245;28;20053;-52
2022/05/15 10:19:04;;;;;;;11.23;3.17;;;37.40;32.80;;;;;;5009272;28;20069;-53
2022/05/15 10:22:13;;;;;;;13.23;3.25;;;36.90;32.70;;;;;;5008852;28;20041;-53
2022/05/15 10:24:43;;;;;;;11.88;2.50;;;36.70;33.50;;;;;;4976276;28;20467;-52
2022/05/15 10:27:31;;;;;;;12.88;3.47;;;36.40;33.90;;;;;;5009161;28;20042;-51
2022/05/15 10:30:07;;;;;;;13.70;3.63;;;36.50;34.20;;;;;;5008861;28;20427;-51
2022/05/15 10:32:32;;;;;;;9.82;2.80;;;36.10;34.20;;;;;;5009271;28;20049;-52
2022/05/15 10:34:58;;;;;;;12.20;2.83;;;36.10;34.40;;;;;;5008507;28;20049;-51
2022/05/15 10:37:33;;;;;;;13.07;3.22;;;;;;;;;;5007219;28;20045;-51
2022/05/15 10:40:34;;;;;;;14.23;2.67;;;36.80;69.60;;;;;;5008166;28;20046;-51
2022/05/15 10:43:03;;;;;;;12.50;2.33;;;36.70;33.50;;;;;;5008248;28;20105;-51
2022/05/15 10:45:53;;;;;;;10.55;3.00;;;36.20;33.40;;;;;;5008591;28;20042;-51
2022/05/15 10:48:49;;;;;;;14.60;2.83;;;35.00;37.40;;;;;;5007229;28;20485;-50
2022/05/15 10:51:31;;;;;;;12.10;3.00;;;33.00;34.60;;;;;;5008950;28;20046;-48
2022/05/15 10:57:40;;;;;;;10.02;2.58;;;29.30;38.50;;;;;;5009405;28;20046;-45
2022/05/15 11:00:25;;;;;;;15.40;3.03;;;28.00;39.30;;;;;;5008239;28;20505;-47
2022/05/15 11:03:17;;;;;;;11.15;2.92;;;27.10;41.60;;;;;;5009318;28;20077;-45
2022/05/15 11:06:11;;;;;;;12.65;2.67;;;26.60;42.30;;;;;;5009135;28;20149;-46
2022/05/15 11:09:01;;;;;;;18.40;3.60;;;26.10;46.00;;;;;;5009203;28;20045;-47
2022/05/15 11:12:07;;;;;;;13.48;2.65;;;25.50;43.50;;;;;;5008973;28;20038;-48
2022/05/15 11:14:54;;;;;;;11.73;3.20;;;25.20;44.00;;;;;;4988789;28;20057;-46
2022/05/15 11:17:43;;;;;;;17.08;2.88;;;24.60;44.80;;;;;;5012738;28;20046;-46
2022/05/15 11:20:22;;;;;;;13.05;2.45;;;24.20;45.70;;;;;;5012792;28;20111;-46
2022/05/15 11:22:54;;;;;;;9.68;2.60;;;23.90;45.40;;;;;;5012389;28;20532;-46
2022/05/15 11:25:27;;;;;;;;;;;23.70;45.50;;;;;;5011215;28;20503;-46
2022/05/15 11:28:21;;;;;;;16.17;3.45;;;23.60;47.70;;;;;;5012593;28;19917;-45
2022/05/15 11:30:53;;;;;;;10.55;2.70;;;23.50;46.70;;;;;;5011467;28;20050;-46
2022/05/15 11:33:43;;;;;;;12.50;3.00;;;23.30;47.10;;;;;;5012266;28;20093;-47
2022/05/15 11:36:11;;;;;;;13.52;2.38;;;23.20;47.50;;;;;;5011573;28;20046;-46
2022/05/15 11:39:06;;;;;;;10.60;2.35;;;23.10;47.40;;;;;;5011376;28;20208;-46
2022/05/15 11:41:34;;;;;;;14.13;2.30;;;23.00;48.90;;;;;;5011224;28;20505;-47
2022/05/15 11:44:30;;;;;;;19.90;3.35;;;23.00;48.40;;;;;;5011150;28;20141;-46
2022/05/15 11:46:59;;;;;;;16.10;2.83;;;23.00;47.60;;;;;;5009614;28;20072;-53
2022/05/15 11:49:38;;;;;;;14.40;3.00;;;23.00;48.30;;;;;;5005334;28;20104;-55
2022/05/15 11:52:03;;;;;;;12.73;2.78;;;22.90;48.00;;;;;;5008883;28;20189;-55
2022/05/15 11:54:36;;;;;;;11.02;2.55;;;22.90;47.80;;;;;;5013458;28;20467;-52
2022/05/15 11:57:05;;;;;;;14.27;3.20;;;22.90;48.10;;;;;;5014929;28;20049;-47
2022/05/15 11:59:39;;;;;;;11.82;3.40;;;22.90;47.80;;;;;;5013685;28;20603;-55
2022/05/15 12:02:30;;;;;;;12.38;2.50;;;22.80;47.30;;;;;;5011389;28;20704;-47
2022/05/15 12:05:20;;;;;;;11.25;2.47;;;22.70;47.50;;;;;;5010371;28;20084;-46
2022/05/15 12:07:58;;;;;;;14.05;2.72;;;22.70;47.70;;;;;;5010815;28;20050;-48
2022/05/15 12:10:32;;;;;;;13.43;2.72;;;22.70;47.90;;;;;;5010413;28;20042;-46
2022/05/15 12:13:04;;;;;;;10.95;2.20;;;22.80;47.40;;;;;;5010783;28;20046;-52
2022/05/15 12:15:43;;;;;;;13.68;2.80;;;22.90;48.10;;;;;;5009895;28;20045;-52
2022/05/15 12:18:28;;;;;;;12.25;2.47;;;23.00;47.40;;;;;;5010556;28;20046;-56
2022/05/15 12:20:56;;;;;;;9.35;2.47;;;23.20;46.90;;;;;;5010694;28;20042;-53
2022/05/15 12:23:31;;;;;;;11.90;1.52;;;23.40;47.30;;;;;;5010091;28;20046;-54
2022/05/15 12:26:19;;;;;;;10.15;1.98;;;23.50;46.30;;;;;;5010233;28;20046;-43
2022/05/15 12:29:02;;;;;;;14.95;2.88;;;23.70;47.20;;;;;;5009533;28;20054;-46
2022/05/15 12:31:37;;;;;;;12.27;2.88;;;23.70;47.70;;;;;;5010857;28;20034;-55
2022/05/15 12:34:10;;;;;;;12.20;2.35;;;23.70;46.80;;;;;;5010897;28;20500;-55
2022/05/15 12:36:39;;;;;;;9.85;1.98;;;23.70;46.80;;;;;;5009659;28;20050;-50
2022/05/15 12:39:06;;;;;;;12.02;1.98;;;23.60;46.30;;;;;;5009831;28;20038;-52
2022/05/15 12:41:38;;;;;;;13.48;3.10;;;23.50;46.50;;;;;;5011552;28;20034;-52
2022/05/15 12:44:10;;;;;;;8.65;2.22;;;23.40;46.70;;;;;;5011062;28;20050;-54
2022/05/15 12:46:38;;;;;;;;;;;23.30;46.70;;;;;;5009496;28;20065;-55
2022/05/15 12:49:06;;;;;;;10.93;2.50;;;23.20;46.80;;;;;;5009458;28;20419;-56
2022/05/15 12:51:34;;;;;;;12.82;2.45;;;23.10;47.20;;;;;;5009228;28;20119;-58
2022/05/15 12:54:02;;;;;;;16.48;2.45;;;23.00;47.10;;;;;;5008158;28;20066;-55
2022/05/15 12:56:35;;;;;;;11.52;2.53;;;22.80;48.00;;;;;;5009315;28;20441;-56
2022/05/15 12:59:18;;;;;;;11.30;2.70;;;22.80;48.10;;;;;;5009311;28;20153;-57
2022/05/15 13:01:46;;;;;;;16.25;2.58;;;22.80;49.70;;;;;;5009762;28;20049;-56
2022/05/15 13:04:21;;;;;;;10.23;2.25;;;22.80;49.50;;;;;;5009598;28;20482;-57
2022/05/15 13:06:57;;;;;;;10.98;2.13;;;22.90;48.30;;;;;;5009304;28;20428;-58
2022/05/15 13:09:26;;;;;;;11.57;2.33;;;22.90;48.50;;;;;;5008306;28;20041;-53
2022/05/15 13:11:56;;;;;;;9.77;2.58;;;22.90;47.80;;;;;;5008170;28;20050;-57
2022/05/15 13:14:54;;;;;;;13.63;2.67;;;22.80;48.30;;;;;;5009983;28;20075;-49
2022/05/15 13:17:36;;;;;;;10.52;2.30;;;22.70;48.50;;;;;;5007312;28;20539;-49
2022/05/15 13:20:14;;;;;;;9.93;1.58;;;22.70;47.50;;;;;;5008075;28;20061;-64